createdAt,value
2022-09-22T00:01:27.134Z,3.63
2022-09-22T00:04:00.498Z,3.10
2022-09-22T00:06:33.530Z,2.83
2022-09-22T00:09:02.235Z,3.10
2022-09-22T00:11:36.439Z,3.00
2022-09-22T00:14:22.256Z,2.83
2022-09-22T00:16:58.907Z,3.00
2022-09-22T00:19:31.697Z,3.83
2022-09-22T00:21:59.380Z,2.90
2022-09-22T00:24:27.275Z,3.05
2022-09-22T00:26:59.216Z,3.20
2022-09-22T00:29:28.798Z,3.22
2022-09-22T00:31:56.145Z,3.22
2022-09-22T00:34:26.101Z,2.88
2022-09-22T00:36:53.220Z,2.58
2022-09-22T00:39:20.530Z,2.60
2022-09-22T00:41:51.103Z,2.78
2022-09-22T00:44:26.971Z,3.28
2022-09-22T00:46:58.812Z,2.70
2022-09-22T00:49:46.995Z,2.80
2022-09-22T00:52:18.948Z,3.10
2022-09-22T00:54:46.686Z,2.83
2022-09-22T00:57:24.111Z,2.58
2022-09-22T00:59:53.773Z,2.58
2022-09-22T01:02:23.769Z,3.17
2022-09-22T01:04:52.609Z,3.45
2022-09-22T01:07:22.824Z,3.78
2022-09-22T01:09:50.108Z,3.75
2022-09-22T01:12:17.290Z,3.28
2022-09-22T01:15:09.591Z,3.17
2022-09-22T01:18:07.888Z,3.50
2022-09-22T01:21:01.386Z,2.75
2022-09-22T01:23:47.372Z,2.33
2022-09-22T01:26:49.462Z,2.25
2022-09-22T01:29:50.035Z,1.85
2022-09-22T01:32:27.215Z,2.00
2022-09-22T01:35:04.229Z,1.63
2022-09-22T01:37:42.927Z,2.00
2022-09-22T01:40:18.866Z,1.58
2022-09-22T01:42:58.501Z,1.63
2022-09-22T01:45:30.150Z,1.75
2022-09-22T01:48:05.288Z,2.00
2022-09-22T01:50:35.037Z,1.70
2022-09-22T01:53:08.809Z,1.60
2022-09-22T01:55:41.131Z,1.85
2022-09-22T01:58:15.141Z,1.80
2022-09-22T02:00:50.456Z,1.70
2022-09-22T02:03:27.809Z,1.90
2022-09-22T02:06:04.340Z,2.50
2022-09-22T02:08:38.812Z,2.00
2022-09-22T02:11:14.010Z,2.30
2022-09-22T02:13:42.926Z,2.00
2022-09-22T02:16:11.867Z,1.90
2022-09-22T02:18:57.092Z,2.00
2022-09-22T02:21:29.900Z,1.77
2022-09-22T02:23:57.498Z,1.92
2022-09-22T02:26:28.457Z,1.98
2022-09-22T02:29:08.179Z,1.80
2022-09-22T02:31:38.184Z,1.70
2022-09-22T02:34:06.409Z,2.10
2022-09-22T02:36:41.193Z,2.30
2022-09-22T02:39:29.234Z,2.50
2022-09-22T02:42:45.754Z,2.60
2022-09-22T02:45:24.023Z,2.88
2022-09-22T02:48:03.095Z,3.40
2022-09-22T02:50:31.780Z,2.55
2022-09-22T02:53:03.296Z,2.63
2022-09-22T02:55:30.263Z,2.53
2022-09-22T02:57:57.331Z,2.83
2022-09-22T03:00:24.194Z,2.63
2022-09-22T03:02:51.063Z,2.85
2022-09-22T03:05:17.977Z,2.30
2022-09-22T03:07:45.027Z,2.25
2022-09-22T03:10:12.259Z,2.47
2022-09-22T03:13:08.872Z,2.33
2022-09-22T03:15:30.840Z,2.15
2022-09-22T03:17:57.950Z,2.10
2022-09-22T03:20:24.864Z,1.90
2022-09-22T03:22:51.784Z,2.45
2022-09-22T03:25:18.931Z,2.20
2022-09-22T03:27:45.875Z,2.17
2022-09-22T03:30:13.403Z,2.28
2022-09-22T03:32:40.322Z,2.20
2022-09-22T03:35:08.005Z,2.28
2022-09-22T03:37:35.022Z,1.85
2022-09-22T03:40:02.954Z,2.00
2022-09-22T03:42:29.872Z,2.40
2022-09-22T03:44:56.851Z,2.30
2022-09-22T03:47:23.803Z,2.22
2022-09-22T03:49:50.724Z,2.30
2022-09-22T03:52:17.615Z,2.55
2022-09-22T03:54:44.525Z,2.50
2022-09-22T03:57:11.398Z,2.60
2022-09-22T03:59:38.304Z,2.90
2022-09-22T04:02:05.408Z,2.60
2022-09-22T04:04:32.686Z,2.70
2022-09-22T04:07:06.123Z,2.60
2022-09-22T04:09:34.119Z,2.50
2022-09-22T04:12:01.196Z,2.13
2022-09-22T04:14:28.316Z,2.58
2022-09-22T04:16:55.282Z,2.33
2022-09-22T04:19:22.931Z,2.05
2022-09-22T04:21:54.614Z,2.30
2022-09-22T04:24:24.698Z,2.40
2022-09-22T04:27:15.554Z,2.22
2022-09-22T04:29:38.910Z,2.55
2022-09-22T04:32:06.189Z,2.63
2022-09-22T04:34:33.192Z,2.50
2022-09-22T04:37:00.115Z,2.53
2022-09-22T04:39:28.811Z,2.25
2022-09-22T04:41:55.903Z,2.47
2022-09-22T04:44:22.863Z,2.90
2022-09-22T04:46:50.503Z,3.10
2022-09-22T04:49:18.530Z,5.30
2022-09-22T04:51:45.673Z,4.03
2022-09-22T04:54:14.169Z,3.13
2022-09-22T04:56:42.113Z,3.38
2022-09-22T04:59:09.566Z,3.70
2022-09-22T05:01:36.619Z,3.70
2022-09-22T05:04:03.867Z,4.30
2022-09-22T05:06:31.271Z,4.15
2022-09-22T05:08:58.705Z,5.03
2022-09-22T05:11:25.634Z,4.93
2022-09-22T05:13:52.604Z,5.13
2022-09-22T05:16:20.169Z,5.28
2022-09-22T05:18:50.320Z,6.05
2022-09-22T05:21:18.971Z,5.72
2022-09-22T05:23:46.537Z,7.10
2022-09-22T05:26:13.764Z,7.22
2022-09-22T05:28:41.049Z,7.47
2022-09-22T05:31:08.019Z,7.30
2022-09-22T05:33:35.032Z,6.25
2022-09-22T05:36:02.527Z,8.30
2022-09-22T05:38:29.420Z,7.40
2022-09-22T05:40:56.380Z,6.53
2022-09-22T05:43:23.255Z,7.32
2022-09-22T05:45:50.241Z,6.28
2022-09-22T05:48:17.337Z,6.32
2022-09-22T05:50:45.469Z,9.23
2022-09-22T05:53:13.380Z,6.82
2022-09-22T05:55:41.319Z,7.57
2022-09-22T05:58:11.821Z,7.32
2022-09-22T06:00:40.046Z,9.40
2022-09-22T06:03:08.106Z,6.80
2022-09-22T06:05:37.816Z,7.25
2022-09-22T06:08:06.559Z,8.00
2022-09-22T06:10:35.759Z,8.90
2022-09-22T06:13:04.726Z,7.82
2022-09-22T06:15:34.027Z,8.30
2022-09-22T06:18:02.329Z,7.45
2022-09-22T06:20:29.603Z,8.30
2022-09-22T06:22:56.766Z,7.15
2022-09-22T06:25:23.873Z,6.82
2022-09-22T06:28:05.775Z,8.35
2022-09-22T06:30:34.723Z,12.82
2022-09-22T06:33:02.128Z,10.45
2022-09-22T06:35:33.821Z,8.48
2022-09-22T06:38:00.761Z,10.00
2022-09-22T06:40:28.247Z,10.30
2022-09-22T06:42:59.992Z,10.38
2022-09-22T06:45:27.323Z,19.88
2022-09-22T06:47:58.879Z,15.80
2022-09-22T06:50:31.198Z,8.63
2022-09-22T06:53:03.734Z,11.18
2022-09-22T06:55:31.506Z,9.75
2022-09-22T06:57:59.077Z,9.75
2022-09-22T07:00:32.916Z,8.10
2022-09-22T07:03:25.569Z,7.65
2022-09-22T07:06:03.083Z,8.18
2022-09-22T07:08:33.001Z,4.35
2022-09-22T07:11:02.587Z,3.30
2022-09-22T07:13:31.750Z,2.33
2022-09-22T07:16:03.396Z,2.17
2022-09-22T07:18:30.896Z,2.08
2022-09-22T07:21:35.374Z,1.90
2022-09-22T07:24:02.805Z,2.35
2022-09-22T07:26:32.649Z,2.65
2022-09-22T07:29:01.836Z,2.80
2022-09-22T07:31:32.026Z,2.10
2022-09-22T07:34:01.961Z,1.55
2022-09-22T07:36:31.519Z,1.80
2022-09-22T07:39:03.707Z,1.75
2022-09-22T07:41:32.022Z,2.03
2022-09-22T07:44:19.376Z,7.70
2022-09-22T07:46:46.671Z,2.92
2022-09-22T07:49:15.346Z,1.98
2022-09-22T07:51:42.351Z,6.82
2022-09-22T07:54:09.615Z,18.48
2022-09-22T07:56:41.849Z,4.72
2022-09-22T07:59:11.114Z,2.30
2022-09-22T08:01:42.161Z,1.70
2022-09-22T08:04:12.754Z,2.35
2022-09-22T08:06:39.631Z,1.70
2022-09-22T08:09:07.045Z,4.30
2022-09-22T08:11:34.505Z,1.80
2022-09-22T08:14:04.917Z,2.25
2022-09-22T08:16:39.075Z,1.90
2022-09-22T08:19:12.591Z,1.90
2022-09-22T08:21:48.719Z,1.80
2022-09-22T08:24:21.582Z,1.52
2022-09-22T08:26:53.173Z,2.15
2022-09-22T08:29:20.577Z,2.10
2022-09-22T08:31:49.537Z,1.60
2022-09-22T08:34:18.106Z,1.45
2022-09-22T08:36:49.344Z,1.30
2022-09-22T08:39:17.728Z,1.73
2022-09-22T08:42:20.874Z,3.13
2022-09-22T08:45:01.293Z,1.10
2022-09-22T08:48:12.069Z,1.30
2022-09-22T08:51:19.857Z,3.58
2022-09-22T08:53:49.764Z,5.88
2022-09-22T08:56:33.671Z,8.82
2022-09-22T08:59:15.271Z,4.30
2022-09-22T09:01:52.490Z,3.53
2022-09-22T09:04:53.505Z,2.13
2022-09-22T09:07:43.732Z,2.88
2022-09-22T09:10:32.966Z,1.10
2022-09-22T09:13:14.732Z,2.20
2022-09-22T09:16:08.606Z,2.58
2022-09-22T09:18:41.739Z,1.38
2022-09-22T09:21:14.255Z,1.50
2022-09-22T09:26:41.491Z,1.27
2022-09-22T09:29:17.885Z,1.30
2022-09-22T09:31:52.588Z,1.20
2022-09-22T09:34:23.818Z,1.08
2022-09-22T09:36:55.382Z,1.40
2022-09-22T09:39:32.739Z,1.05
2022-09-22T09:42:02.564Z,1.20
2022-09-22T09:44:38.361Z,1.50
2022-09-22T09:47:27.512Z,1.60
2022-09-22T09:49:54.922Z,0.80
2022-09-22T09:52:25.749Z,1.20
2022-09-22T09:54:54.451Z,1.20
2022-09-22T09:57:27.459Z,0.95
2022-09-22T10:00:34.828Z,0.90
2022-09-22T10:03:28.697Z,0.98
2022-09-22T10:06:06.524Z,0.65
2022-09-22T10:08:43.474Z,0.98
2022-09-22T10:11:12.690Z,1.00
2022-09-22T10:13:40.853Z,1.00
2022-09-22T10:16:16.685Z,1.45
2022-09-22T10:18:43.581Z,2.03
2022-09-22T10:21:23.005Z,1.67
2022-09-22T10:24:02.056Z,0.95
2022-09-22T10:26:30.746Z,2.22
2022-09-22T10:29:12.776Z,1.60
2022-09-22T10:32:03.940Z,1.83
2022-09-22T10:34:36.505Z,3.42
2022-09-22T10:37:10.716Z,1.70
2022-09-22T10:39:45.109Z,1.73
2022-09-22T10:42:25.966Z,1.35
2022-09-22T10:44:54.769Z,23.40
2022-09-22T10:47:32.515Z,21.67
2022-09-22T10:50:27.882Z,15.35
2022-09-22T10:53:13.561Z,29.27
2022-09-22T10:56:18.955Z,7.88
2022-09-22T10:59:07.437Z,2.15
2022-09-22T11:01:49.748Z,4.50
2022-09-22T11:04:22.486Z,1.50
2022-09-22T11:10:09.162Z,1.35
2022-09-22T11:13:16.581Z,1.15
2022-09-22T11:16:02.368Z,1.10
2022-09-22T11:19:03.198Z,1.10
2022-09-22T11:21:55.030Z,1.00
2022-09-22T11:24:40.231Z,1.13
2022-09-22T11:27:36.487Z,1.10
2022-09-22T11:30:20.703Z,1.00
2022-09-22T11:33:25.721Z,1.20
2022-09-22T11:35:58.269Z,1.33
2022-09-22T11:38:59.107Z,1.10
2022-09-22T11:41:32.102Z,1.52
2022-09-22T11:44:26.118Z,1.30
2022-09-22T11:47:37.973Z,1.05
2022-09-22T11:50:23.641Z,1.27
2022-09-22T11:53:23.229Z,1.08
2022-09-22T11:55:59.163Z,1.50
2022-09-22T11:58:29.245Z,1.50
2022-09-22T12:01:10.875Z,1.45
2022-09-22T12:03:59.024Z,1.30
2022-09-22T12:06:31.935Z,0.93
2022-09-22T12:09:04.049Z,0.90
2022-09-22T12:11:35.924Z,0.98
2022-09-22T12:14:04.542Z,0.80
2022-09-22T12:16:39.339Z,1.02
2022-09-22T12:19:15.148Z,1.38
2022-09-22T12:22:12.509Z,0.98
2022-09-22T12:24:39.957Z,0.93
2022-09-22T12:27:20.723Z,1.30
2022-09-22T12:29:58.871Z,1.00
2022-09-22T12:32:39.458Z,1.30
2022-09-22T12:35:07.549Z,1.00
2022-09-22T12:37:38.393Z,0.75
2022-09-22T12:40:14.077Z,1.17
2022-09-22T12:42:43.401Z,1.10
2022-09-22T12:45:10.267Z,1.17
2022-09-22T12:47:40.994Z,1.45
2022-09-22T12:50:28.001Z,1.30
2022-09-22T12:53:02.655Z,0.90
2022-09-22T12:55:38.450Z,1.20
2022-09-22T12:58:28.127Z,0.98
2022-09-22T13:01:33.911Z,1.25
2022-09-22T13:04:16.397Z,1.20
2022-09-22T13:06:43.240Z,0.88
2022-09-22T13:09:21.442Z,0.73
2022-09-22T13:12:13.189Z,0.70
2022-09-22T13:15:19.678Z,0.80
2022-09-22T13:17:50.110Z,0.77
2022-09-22T13:20:19.221Z,1.05
2022-09-22T13:22:46.486Z,1.00
2022-09-22T13:25:31.873Z,0.82
2022-09-22T13:28:17.561Z,0.93
2022-09-22T13:30:46.104Z,1.25
2022-09-22T13:33:36.539Z,1.42
2022-09-22T13:36:23.563Z,1.80
2022-09-22T13:38:55.234Z,1.83
2022-09-22T13:41:25.721Z,1.63
2022-09-22T13:44:01.063Z,1.70
2022-09-22T13:46:33.327Z,1.30
2022-09-22T13:49:00.825Z,1.35
2022-09-22T13:51:27.920Z,0.93
2022-09-22T13:53:57.741Z,1.00
2022-09-22T13:56:26.494Z,1.35
2022-09-22T13:58:57.416Z,0.90
2022-09-22T14:01:26.937Z,1.50
2022-09-22T14:03:55.350Z,1.50
2022-09-22T14:06:26.303Z,1.60
2022-09-22T14:08:55.192Z,2.55
2022-09-22T14:11:25.697Z,2.75
2022-09-22T14:13:55.931Z,2.08
2022-09-22T14:16:47.603Z,1.77
2022-09-22T14:19:21.238Z,1.33
2022-09-22T14:22:02.990Z,0.82
2022-09-22T14:24:32.261Z,0.63
2022-09-22T14:27:04.271Z,0.70
2022-09-22T14:29:32.663Z,0.77
2022-09-22T14:32:12.904Z,0.82
2022-09-22T14:34:44.923Z,0.68
2022-09-22T14:37:41.977Z,1.10
2022-09-22T14:40:16.756Z,0.80
2022-09-22T14:42:58.709Z,1.33
2022-09-22T14:45:27.710Z,1.63
2022-09-22T14:48:34.399Z,1.17
2022-09-22T14:51:08.684Z,1.38
2022-09-22T14:53:51.691Z,0.90
2022-09-22T14:58:53.063Z,1.08
2022-09-22T15:01:41.665Z,0.70
2022-09-22T15:04:18.824Z,0.70
2022-09-22T15:06:46.877Z,0.90
2022-09-22T15:09:30.797Z,1.48
2022-09-22T15:12:02.947Z,1.00
2022-09-22T15:14:41.758Z,0.70
2022-09-22T15:18:02.166Z,1.65
2022-09-22T15:20:44.269Z,1.33
2022-09-22T15:23:20.403Z,1.13
2022-09-22T15:25:48.564Z,0.85
2022-09-22T15:28:18.664Z,0.70
2022-09-22T15:30:47.754Z,0.82
2022-09-22T15:33:16.257Z,1.13
2022-09-22T15:35:46.728Z,0.95
2022-09-22T15:38:27.643Z,1.25
2022-09-22T15:40:54.569Z,2.63
2022-09-22T15:43:24.751Z,2.42
2022-09-22T15:45:56.265Z,1.67
2022-09-22T15:48:30.181Z,1.27
2022-09-22T15:50:58.575Z,1.50
2022-09-22T15:53:26.012Z,1.00
2022-09-22T15:55:54.426Z,1.23
2022-09-22T15:58:25.819Z,1.40
2022-09-22T16:00:53.440Z,1.60
2022-09-22T16:03:23.609Z,1.45
2022-09-22T16:06:00.249Z,1.30
2022-09-22T16:08:37.512Z,2.00
2022-09-22T16:11:05.900Z,1.15
2022-09-22T16:13:33.680Z,1.90
2022-09-22T16:16:04.132Z,2.13
2022-09-22T16:18:36.407Z,2.20
2022-09-22T16:21:23.899Z,2.75
2022-09-22T16:23:50.794Z,1.95
2022-09-22T16:26:18.009Z,2.80
2022-09-22T16:28:44.879Z,4.10
2022-09-22T16:31:11.856Z,4.25
2022-09-22T16:33:38.874Z,3.60
2022-09-22T16:36:06.032Z,3.90
2022-09-22T16:38:34.587Z,4.75
2022-09-22T16:41:17.915Z,4.82
2022-09-22T16:43:45.257Z,4.47
2022-09-22T16:46:28.215Z,4.57
2022-09-22T16:51:36.545Z,6.18
2022-09-22T16:54:09.067Z,7.68
2022-09-22T16:56:39.942Z,8.55
2022-09-22T16:59:07.812Z,7.45
2022-09-22T17:01:37.914Z,7.40
2022-09-22T17:04:06.585Z,7.95
2022-09-22T17:06:33.907Z,7.32
2022-09-22T17:09:01.069Z,8.20
2022-09-22T17:11:30.432Z,5.45
2022-09-22T17:14:03.007Z,6.18
2022-09-22T17:16:37.570Z,7.82
2022-09-22T17:19:07.939Z,8.73
2022-09-22T17:21:37.382Z,7.35
2022-09-22T17:24:05.869Z,5.15
2022-09-22T17:26:37.601Z,5.68
2022-09-22T17:29:06.538Z,8.10
2022-09-22T17:31:35.986Z,9.35
2022-09-22T17:34:03.265Z,8.98
2022-09-22T17:36:30.724Z,7.25
2022-09-22T17:39:00.409Z,6.47
2022-09-22T17:41:32.728Z,6.93
2022-09-22T17:44:03.080Z,6.43
2022-09-22T17:46:35.164Z,6.50
2022-09-22T17:49:21.010Z,5.25
2022-09-22T17:52:08.385Z,6.85
2022-09-22T17:54:55.941Z,6.80
2022-09-22T17:57:33.128Z,6.95
2022-09-22T18:00:00.391Z,6.65
2022-09-22T18:02:29.799Z,5.20
2022-09-22T18:04:56.754Z,4.97
2022-09-22T18:07:25.768Z,4.43
2022-09-22T18:09:55.567Z,4.88
2022-09-22T18:12:24.774Z,5.93
2022-09-22T18:14:53.747Z,6.22
2022-09-22T18:17:28.117Z,6.50
2022-09-22T18:19:56.169Z,11.07
2022-09-22T18:22:24.889Z,8.10
2022-09-22T18:24:56.463Z,7.03
2022-09-22T18:27:27.183Z,7.80
2022-09-22T18:29:58.474Z,6.25
2022-09-22T18:32:26.972Z,8.30
2022-09-22T18:34:57.121Z,7.00
2022-09-22T18:37:25.064Z,9.23
2022-09-22T18:39:52.033Z,8.68
2022-09-22T18:42:22.828Z,8.55
2022-09-22T18:44:50.312Z,9.50
2022-09-22T18:47:19.323Z,8.88
2022-09-22T18:49:50.102Z,7.05
2022-09-22T18:52:21.655Z,10.50
2022-09-22T18:54:48.766Z,10.93
2022-09-22T18:57:15.723Z,13.10
2022-09-22T18:59:42.718Z,11.90
2022-09-22T19:02:12.023Z,7.63
2022-09-22T19:04:39.601Z,6.28
2022-09-22T19:07:25.085Z,6.82
2022-09-22T19:09:53.045Z,5.82
2022-09-22T19:12:21.687Z,5.45
2022-09-22T19:14:50.184Z,7.05
2022-09-22T19:17:18.153Z,5.85
2022-09-22T19:19:49.923Z,8.55
2022-09-22T19:22:17.135Z,6.45
2022-09-22T19:24:46.291Z,8.45
2022-09-22T19:27:18.011Z,7.30
2022-09-22T19:29:45.069Z,6.82
2022-09-22T19:32:12.062Z,6.35
2022-09-22T19:34:39.072Z,7.90
2022-09-22T19:37:07.027Z,7.32
2022-09-22T19:39:34.171Z,6.57
2022-09-22T19:42:01.135Z,7.30
2022-09-22T19:44:29.743Z,6.32
2022-09-22T19:46:57.292Z,8.55
2022-09-22T19:49:25.549Z,6.28
2022-09-22T19:51:54.086Z,6.78
2022-09-22T19:54:21.363Z,8.55
2022-09-22T19:56:48.945Z,7.45
2022-09-22T19:59:19.771Z,7.45
2022-09-22T20:01:48.174Z,7.03
2022-09-22T20:04:18.205Z,5.97
2022-09-22T20:06:46.365Z,7.05
2022-09-22T20:09:13.622Z,7.25
2022-09-22T20:11:46.133Z,9.00
2022-09-22T20:14:20.619Z,8.68
2022-09-22T20:16:59.996Z,7.43
2022-09-22T20:19:28.167Z,6.30
2022-09-22T20:22:18.871Z,7.15
2022-09-22T20:24:57.429Z,7.38
2022-09-22T20:27:29.834Z,10.80
2022-09-22T20:29:57.847Z,7.35
2022-09-22T20:32:31.674Z,6.28
2022-09-22T20:34:58.716Z,6.15
2022-09-22T20:37:26.141Z,8.68
2022-09-22T20:39:53.270Z,6.88
2022-09-22T20:42:20.286Z,7.10
2022-09-22T20:44:47.293Z,5.60
2022-09-22T20:47:16.770Z,7.55
2022-09-22T20:49:49.253Z,6.57
2022-09-22T20:52:20.150Z,6.80
2022-09-22T20:54:47.600Z,6.22
2022-09-22T20:57:14.584Z,7.32
2022-09-22T20:59:44.000Z,6.40
2022-09-22T21:02:13.098Z,6.05
2022-09-22T21:04:40.439Z,7.07
2022-09-22T21:07:07.979Z,5.32
2022-09-22T21:09:53.312Z,5.72
2022-09-22T21:12:20.292Z,5.90
2022-09-22T21:14:47.211Z,6.28
2022-09-22T21:17:15.670Z,5.88
2022-09-22T21:19:43.415Z,6.13
2022-09-22T21:22:10.642Z,5.90
2022-09-22T21:24:37.672Z,5.20
2022-09-22T21:27:05.276Z,4.88
2022-09-22T21:29:32.401Z,5.90
2022-09-22T21:32:00.627Z,4.97
2022-09-22T21:34:27.823Z,5.15
2022-09-22T21:36:54.797Z,4.88
2022-09-22T21:39:21.725Z,4.82
2022-09-22T21:41:49.399Z,5.13
2022-09-22T21:44:16.363Z,4.95
2022-09-22T21:46:44.301Z,5.18
2022-09-22T21:49:11.486Z,5.20
2022-09-22T21:51:44.365Z,4.65
2022-09-22T21:54:17.780Z,5.18
2022-09-22T21:56:45.123Z,4.25
2022-09-22T21:59:13.671Z,4.57
2022-09-22T22:01:42.166Z,4.45
2022-09-22T22:04:13.527Z,4.55
2022-09-22T22:06:43.153Z,4.43
2022-09-22T22:09:20.092Z,4.85
2022-09-22T22:11:55.712Z,4.78
2022-09-22T22:14:24.427Z,4.13
2022-09-22T22:16:53.391Z,3.90
2022-09-22T22:19:22.542Z,4.00
2022-09-22T22:21:51.081Z,4.25
2022-09-22T22:24:42.542Z,4.03
2022-09-22T22:27:10.941Z,3.95
2022-09-22T22:29:41.118Z,3.72
2022-09-22T22:32:10.638Z,3.45
2022-09-22T22:34:37.989Z,3.83
2022-09-22T22:37:08.982Z,3.50
2022-09-22T22:39:35.863Z,3.67
2022-09-22T22:42:02.777Z,4.30
2022-09-22T22:44:29.690Z,4.30
2022-09-22T22:46:56.925Z,3.90
2022-09-22T22:49:23.936Z,3.92
2022-09-22T22:51:52.302Z,3.88
2022-09-22T22:54:19.212Z,4.10
2022-09-22T22:56:50.320Z,3.90
2022-09-22T22:59:18.221Z,3.70
2022-09-22T23:01:45.215Z,4.38
2022-09-22T23:04:12.691Z,3.75
2022-09-22T23:06:43.932Z,3.90
2022-09-22T23:09:14.151Z,3.90
2022-09-22T23:11:42.046Z,4.20
2022-09-22T23:14:11.702Z,3.58
2022-09-22T23:16:44.101Z,3.30
2022-09-22T23:19:17.004Z,3.58
2022-09-22T23:21:45.247Z,3.78
2022-09-22T23:24:17.270Z,3.35
2022-09-22T23:26:46.150Z,3.67
2022-09-22T23:29:13.335Z,3.08
2022-09-22T23:31:40.260Z,3.85
2022-09-22T23:34:07.138Z,3.50
2022-09-22T23:36:34.052Z,3.90
2022-09-22T23:39:04.021Z,4.05
2022-09-22T23:41:33.531Z,3.50
2022-09-22T23:44:00.580Z,3.85
2022-09-22T23:46:28.104Z,3.38
2022-09-22T23:48:55.737Z,3.60
2022-09-22T23:51:23.117Z,3.50
2022-09-22T23:53:50.107Z,2.83
2022-09-22T23:56:17.334Z,3.17
2022-09-22T23:58:45.496Z,3.22
